createdAt,value
2023-05-03T00:01:59.353Z,69.36
2023-05-03T00:04:28.692Z,67.26
2023-05-03T00:06:56.645Z,66.94
2023-05-03T00:09:24.557Z,68.59
2023-05-03T00:11:53.452Z,69.11
2023-05-03T00:14:21.486Z,68.27
2023-05-03T00:16:49.441Z,67.72
2023-05-03T00:19:30.491Z,67.04
2023-05-03T00:22:01.058Z,66.40
2023-05-03T00:24:28.955Z,65.66
2023-05-03T00:26:56.849Z,66.30
2023-05-03T00:29:24.811Z,67.72
2023-05-03T00:31:52.687Z,66.34
2023-05-03T00:34:20.903Z,66.03
2023-05-03T00:36:48.789Z,65.97
2023-05-03T00:39:18.167Z,68.22
2023-05-03T00:41:46.070Z,67.06
2023-05-03T00:44:13.963Z,66.68
2023-05-03T00:46:41.963Z,65.69
2023-05-03T00:49:10.484Z,65.60
2023-05-03T00:51:38.462Z,65.65
2023-05-03T00:54:06.428Z,65.65
2023-05-03T00:56:47.834Z,65.81
2023-05-03T00:59:19.709Z,65.28
2023-05-03T01:01:49.696Z,65.24
2023-05-03T01:04:18.522Z,65.33
2023-05-03T01:06:52.569Z,65.44
2023-05-03T01:09:24.459Z,66.90
2023-05-03T01:12:02.924Z,68.92
2023-05-03T01:14:37.856Z,67.94
2023-05-03T01:17:10.437Z,68.53
2023-05-03T01:19:41.276Z,70.78
2023-05-03T01:22:17.356Z,69.68
2023-05-03T01:24:47.503Z,68.22
2023-05-03T01:27:16.749Z,68.29
2023-05-03T01:29:44.915Z,67.44
2023-05-03T01:32:17.037Z,66.82
2023-05-03T01:34:51.617Z,66.37
2023-05-03T01:37:19.755Z,66.40
2023-05-03T01:39:51.874Z,66.61
2023-05-03T01:42:21.994Z,66.84
2023-05-03T01:44:51.002Z,67.56
2023-05-03T01:47:18.944Z,67.18
2023-05-03T01:49:46.825Z,66.52
2023-05-03T01:52:14.940Z,66.58
2023-05-03T01:54:42.838Z,66.75
2023-05-03T01:57:10.776Z,66.59
2023-05-03T01:59:40.111Z,68.19
2023-05-03T02:02:08.023Z,67.45
2023-05-03T02:04:35.997Z,66.92
2023-05-03T02:07:03.972Z,67.73
2023-05-03T02:09:31.873Z,68.27
2023-05-03T02:11:59.774Z,67.50
2023-05-03T02:14:27.740Z,66.95
2023-05-03T02:16:57.078Z,67.57
2023-05-03T02:19:25.110Z,68.04
2023-05-03T02:21:53.014Z,67.15
2023-05-03T02:24:21.190Z,67.68
2023-05-03T02:26:49.073Z,66.80
2023-05-03T02:29:17.108Z,66.96
2023-05-03T02:31:44.989Z,71.04
2023-05-03T02:34:14.345Z,68.61
2023-05-03T02:36:42.231Z,72.63
2023-05-03T02:39:10.733Z,73.41
2023-05-03T02:41:38.653Z,74.17
2023-05-03T02:44:06.575Z,71.01
2023-05-03T02:46:34.488Z,70.78
2023-05-03T02:49:02.475Z,70.52
2023-05-03T02:51:32.533Z,71.92
2023-05-03T02:54:00.574Z,69.83
2023-05-03T02:56:28.551Z,68.50
2023-05-03T02:58:56.462Z,67.17
2023-05-03T03:01:24.566Z,67.88
2023-05-03T03:03:52.687Z,68.32
2023-05-03T03:06:21.034Z,66.98
2023-05-03T03:08:50.368Z,68.10
2023-05-03T03:11:18.771Z,70.78
2023-05-03T03:13:46.647Z,70.39
2023-05-03T03:16:14.631Z,68.74
2023-05-03T03:18:42.534Z,70.67
2023-05-03T03:21:10.477Z,69.00
2023-05-03T03:23:38.373Z,70.63
2023-05-03T03:26:07.709Z,68.66
2023-05-03T03:28:35.583Z,69.55
2023-05-03T03:31:03.543Z,70.77
2023-05-03T03:33:31.420Z,70.01
2023-05-03T03:35:59.319Z,67.77
2023-05-03T03:38:27.599Z,67.47
2023-05-03T03:40:55.556Z,66.49
2023-05-03T03:43:24.926Z,67.16
2023-05-03T03:45:52.844Z,70.29
2023-05-03T03:48:20.858Z,69.88
2023-05-03T03:50:48.897Z,69.08
2023-05-03T03:53:16.792Z,68.66
2023-05-03T03:55:44.746Z,70.89
2023-05-03T03:58:12.720Z,72.87
2023-05-03T04:00:42.808Z,73.43
2023-05-03T04:03:11.135Z,71.53
2023-05-03T04:05:39.101Z,68.93
2023-05-03T04:08:07.290Z,67.79
2023-05-03T04:10:35.257Z,70.01
2023-05-03T04:13:03.215Z,71.65
2023-05-03T04:15:31.115Z,68.71
2023-05-03T04:18:00.586Z,67.77
2023-05-03T04:20:29.389Z,68.62
2023-05-03T04:22:57.302Z,69.75
2023-05-03T04:25:25.708Z,70.84
2023-05-03T04:27:53.805Z,70.23
2023-05-03T04:30:22.056Z,68.81
2023-05-03T04:32:49.973Z,67.67
2023-05-03T04:35:20.057Z,69.11
2023-05-03T04:37:48.052Z,71.12
2023-05-03T04:40:17.299Z,69.36
2023-05-03T04:42:45.452Z,70.04
2023-05-03T04:45:14.575Z,71.25
2023-05-03T04:47:43.269Z,71.89
2023-05-03T04:50:12.350Z,72.18
2023-05-03T04:52:41.751Z,71.58
2023-05-03T04:55:10.650Z,71.55
2023-05-03T04:57:38.513Z,72.24
2023-05-03T05:00:11.301Z,71.05
2023-05-03T05:02:39.341Z,70.31
2023-05-03T05:05:09.124Z,70.04
2023-05-03T05:07:37.031Z,70.67
2023-05-03T05:10:07.506Z,68.73
2023-05-03T05:12:35.448Z,70.32
2023-05-03T05:15:04.297Z,70.40
2023-05-03T05:17:32.300Z,71.05
2023-05-03T05:20:00.633Z,68.20
2023-05-03T05:22:28.731Z,70.55
2023-05-03T05:24:57.093Z,69.12
2023-05-03T05:27:27.072Z,69.87
2023-05-03T05:29:55.010Z,71.27
2023-05-03T05:32:23.121Z,70.13
2023-05-03T05:34:55.247Z,68.90
2023-05-03T05:37:23.376Z,70.59
2023-05-03T05:39:51.368Z,70.34
2023-05-03T05:42:19.311Z,70.62
2023-05-03T05:44:48.582Z,70.68
2023-05-03T05:47:16.679Z,69.35
2023-05-03T05:49:44.876Z,70.76
2023-05-03T05:52:12.848Z,68.75
2023-05-03T05:54:40.742Z,69.30
2023-05-03T05:57:08.864Z,69.96
2023-05-03T05:59:36.751Z,69.25
2023-05-03T06:02:06.144Z,68.26
2023-05-03T06:04:34.097Z,70.63
2023-05-03T06:07:01.994Z,70.44
2023-05-03T06:09:29.857Z,70.31
2023-05-03T06:11:57.756Z,67.52
2023-05-03T06:14:25.744Z,68.83
2023-05-03T06:16:54.129Z,68.77
2023-05-03T06:19:24.531Z,68.50
2023-05-03T06:21:52.429Z,68.25
2023-05-03T06:24:21.521Z,67.47
2023-05-03T06:26:49.708Z,65.79
2023-05-03T06:29:18.280Z,66.71
2023-05-03T06:31:46.529Z,66.83
2023-05-03T06:34:14.471Z,65.11
2023-05-03T06:36:43.716Z,66.75
2023-05-03T06:39:11.662Z,66.08
2023-05-03T06:41:39.568Z,64.88
2023-05-03T06:44:08.200Z,64.03
2023-05-03T06:46:36.207Z,63.69
2023-05-03T06:49:04.259Z,63.60
2023-05-03T06:51:33.187Z,62.25
2023-05-03T06:54:07.074Z,62.78
2023-05-03T06:56:35.255Z,62.71
2023-05-03T06:59:03.587Z,62.67
2023-05-03T07:01:32.139Z,62.29
2023-05-03T07:04:00.534Z,62.25
2023-05-03T07:06:28.533Z,61.77
2023-05-03T07:08:56.432Z,61.78
2023-05-03T07:11:25.821Z,61.12
2023-05-03T07:13:54.051Z,61.72
2023-05-03T07:16:22.114Z,62.00
2023-05-03T07:18:50.483Z,61.67
2023-05-03T07:21:18.412Z,61.66
2023-05-03T07:23:46.326Z,61.18
2023-05-03T07:26:14.287Z,60.85
2023-05-03T07:28:43.646Z,59.49
2023-05-03T07:31:12.171Z,58.99
2023-05-03T07:33:40.450Z,59.87
2023-05-03T07:36:08.846Z,60.60
2023-05-03T07:38:37.342Z,59.09
2023-05-03T07:41:05.331Z,57.83
2023-05-03T07:43:33.248Z,56.77
2023-05-03T07:46:02.639Z,58.49
2023-05-03T07:48:30.872Z,55.64
2023-05-03T07:50:58.848Z,57.00
2023-05-03T07:53:26.804Z,57.71
2023-05-03T07:55:56.819Z,57.50
2023-05-03T07:58:38.882Z,59.01
2023-05-03T08:01:09.640Z,58.80
2023-05-03T08:03:37.670Z,58.34
2023-05-03T08:06:06.004Z,57.34
2023-05-03T08:08:34.012Z,56.64
2023-05-03T08:11:01.923Z,55.69
2023-05-03T08:13:29.829Z,56.33
2023-05-03T08:15:57.904Z,57.78
2023-05-03T08:18:27.613Z,55.52
2023-05-03T08:20:55.787Z,57.44
2023-05-03T08:23:23.894Z,56.06
2023-05-03T08:25:52.178Z,53.25
2023-05-03T08:28:20.106Z,56.17
2023-05-03T08:30:48.236Z,55.20
2023-05-03T08:33:16.161Z,54.66
2023-05-03T08:35:46.843Z,56.10
2023-05-03T08:38:16.426Z,55.69
2023-05-03T08:40:44.990Z,55.27
2023-05-03T08:43:14.657Z,54.93
2023-05-03T08:45:42.678Z,56.56
2023-05-03T08:48:10.702Z,52.12
2023-05-03T08:50:42.401Z,55.74
2023-05-03T08:53:12.035Z,55.53
2023-05-03T08:55:40.355Z,56.37
2023-05-03T08:58:10.500Z,56.17
2023-05-03T09:00:38.509Z,55.61
2023-05-03T09:03:06.507Z,55.75
2023-05-03T09:05:35.888Z,51.40
2023-05-03T09:08:04.952Z,56.07
2023-05-03T09:10:34.863Z,55.83
2023-05-03T09:13:03.738Z,54.35
2023-05-03T09:15:32.073Z,55.42
2023-05-03T09:18:10.726Z,53.30
2023-05-03T09:20:40.269Z,52.09
2023-05-03T09:23:08.884Z,52.49
2023-05-03T09:25:48.156Z,54.16
2023-05-03T09:28:17.103Z,54.76
2023-05-03T09:30:45.626Z,53.12
2023-05-03T09:33:19.298Z,55.20
2023-05-03T09:35:57.550Z,53.60
2023-05-03T09:38:28.144Z,54.61
2023-05-03T09:40:57.648Z,52.00
2023-05-03T09:43:25.568Z,55.57
2023-05-03T09:45:53.559Z,55.05
2023-05-03T09:48:23.655Z,55.13
2023-05-03T09:50:52.402Z,54.50
2023-05-03T09:53:21.464Z,54.31
2023-05-03T09:55:51.052Z,51.45
2023-05-03T09:58:21.811Z,53.60
2023-05-03T10:00:52.596Z,53.00
2023-05-03T10:03:25.695Z,54.96
2023-05-03T10:05:54.336Z,51.68
2023-05-03T10:08:27.324Z,52.68
2023-05-03T10:10:55.367Z,52.62
2023-05-03T10:13:24.801Z,52.20
2023-05-03T10:15:55.732Z,52.12
2023-05-03T10:18:25.221Z,52.47
2023-05-03T10:20:58.323Z,52.89
2023-05-03T10:23:27.280Z,54.75
2023-05-03T10:26:17.199Z,51.72
2023-05-03T10:28:47.112Z,54.42
2023-05-03T10:31:47.044Z,52.62
2023-05-03T10:34:22.200Z,50.99
2023-05-03T10:36:52.630Z,53.85
2023-05-03T10:39:20.994Z,51.84
2023-05-03T10:41:59.668Z,49.92
2023-05-03T10:44:30.738Z,54.86
2023-05-03T10:46:58.772Z,53.95
2023-05-03T10:49:27.534Z,50.93
2023-05-03T10:51:55.708Z,51.74
2023-05-03T10:54:24.280Z,51.94
2023-05-03T10:56:57.205Z,53.24
2023-05-03T10:59:26.106Z,51.26
2023-05-03T11:01:56.938Z,53.24
2023-05-03T11:04:35.219Z,52.46
2023-05-03T11:07:04.762Z,52.30
2023-05-03T11:09:34.221Z,54.72
2023-05-03T11:12:06.875Z,53.01
2023-05-03T11:14:34.918Z,53.04
2023-05-03T11:17:04.708Z,54.23
2023-05-03T11:19:32.866Z,54.06
2023-05-03T11:22:00.777Z,53.28
2023-05-03T11:24:29.449Z,52.24
2023-05-03T11:26:57.810Z,51.71
2023-05-03T11:29:26.480Z,53.80
2023-05-03T11:31:54.782Z,54.29
2023-05-03T11:34:24.381Z,54.32
2023-05-03T11:36:52.681Z,53.50
2023-05-03T11:39:21.685Z,53.83
2023-05-03T11:42:04.897Z,51.47
2023-05-03T11:44:32.993Z,53.74
2023-05-03T11:47:01.640Z,54.58
2023-05-03T11:49:31.609Z,51.84
2023-05-03T11:51:59.603Z,52.99
2023-05-03T11:54:28.411Z,52.58
2023-05-03T11:57:00.185Z,52.84
2023-05-03T11:59:38.676Z,51.71
2023-05-03T12:02:09.526Z,51.49
2023-05-03T12:04:42.912Z,53.69
2023-05-03T12:07:14.684Z,51.39
2023-05-03T12:09:55.299Z,53.30
2023-05-03T12:12:32.469Z,52.59
2023-05-03T12:15:07.803Z,50.70
2023-05-03T12:17:38.713Z,51.32
2023-05-03T12:21:26.289Z,54.24
2023-05-03T12:23:15.553Z,52.07
2023-05-03T12:25:44.637Z,51.36
2023-05-03T12:28:20.181Z,49.88
2023-05-03T12:30:48.816Z,53.75
2023-05-03T12:33:21.934Z,49.39
2023-05-03T12:35:54.249Z,49.18
2023-05-03T12:38:24.467Z,52.04
2023-05-03T12:40:53.676Z,49.12
2023-05-03T12:43:21.946Z,48.05
2023-05-03T12:45:55.856Z,43.56
2023-05-03T12:48:37.951Z,43.53
2023-05-03T12:51:19.192Z,44.48
2023-05-03T12:53:54.145Z,45.77
2023-05-03T12:56:24.896Z,43.92
2023-05-03T12:59:15.049Z,44.06
2023-05-03T13:06:47.017Z,49.97
2023-05-03T13:09:20.455Z,48.61
2023-05-03T13:11:50.008Z,43.29
2023-05-03T13:14:18.274Z,48.29
2023-05-03T13:16:46.763Z,45.83
2023-05-03T13:19:14.987Z,47.15
2023-05-03T13:21:43.211Z,47.17
2023-05-03T13:24:12.493Z,46.05
2023-05-03T13:26:40.548Z,50.33
2023-05-03T13:29:08.445Z,50.52
2023-05-03T13:31:36.425Z,44.89
2023-05-03T13:34:04.308Z,46.28
2023-05-03T13:36:33.426Z,45.99
2023-05-03T13:39:02.001Z,50.00
2023-05-03T13:41:31.565Z,50.57
2023-05-03T13:43:59.485Z,48.17
2023-05-03T13:46:27.529Z,46.90
2023-05-03T13:48:56.512Z,46.77
2023-05-03T13:51:25.677Z,48.56
2023-05-03T13:53:53.578Z,46.38
2023-05-03T13:56:21.678Z,43.57
2023-05-03T13:58:50.994Z,48.50
2023-05-03T14:01:19.271Z,47.68
2023-05-03T14:03:47.357Z,48.25
2023-05-03T14:06:15.391Z,43.97
2023-05-03T14:08:43.277Z,46.28
2023-05-03T14:11:14.463Z,46.92
2023-05-03T14:13:55.678Z,46.66
2023-05-03T14:16:39.966Z,46.04
2023-05-03T14:19:10.557Z,45.12
2023-05-03T14:21:38.864Z,43.63
2023-05-03T14:24:07.570Z,44.11
2023-05-03T14:26:35.471Z,44.70
2023-05-03T14:29:04.234Z,45.09
2023-05-03T14:31:34.258Z,41.51
2023-05-03T14:34:02.302Z,46.29
2023-05-03T14:36:34.907Z,45.98
2023-05-03T14:39:03.146Z,45.62
2023-05-03T14:41:32.085Z,43.64
2023-05-03T14:44:00.005Z,43.95
2023-05-03T14:46:27.974Z,38.49
2023-05-03T14:48:57.393Z,44.04
2023-05-03T14:51:25.410Z,39.95
2023-05-03T14:53:53.315Z,43.62
2023-05-03T14:56:21.236Z,42.04
2023-05-03T14:58:49.121Z,39.56
2023-05-03T15:01:20.587Z,41.85
2023-05-03T15:03:48.636Z,40.98
2023-05-03T15:06:24.027Z,43.66
2023-05-03T15:08:52.378Z,43.19
2023-05-03T15:11:20.302Z,39.98
2023-05-03T15:13:48.404Z,41.34
2023-05-03T15:16:16.518Z,38.46
2023-05-03T15:18:48.182Z,43.25
2023-05-03T15:21:21.217Z,41.96
2023-05-03T15:23:49.581Z,42.97
2023-05-03T15:26:17.732Z,43.63
2023-05-03T15:28:45.743Z,42.16
2023-05-03T15:31:14.170Z,41.74
2023-05-03T15:33:43.134Z,40.14
2023-05-03T15:36:12.022Z,37.44
2023-05-03T15:38:41.912Z,38.76
2023-05-03T15:41:09.816Z,36.83
2023-05-03T15:44:24.626Z,40.80
2023-05-03T15:46:52.552Z,41.06
2023-05-03T15:49:20.509Z,39.81
2023-05-03T15:51:48.404Z,44.14
2023-05-03T15:54:17.690Z,40.07
2023-05-03T15:56:53.995Z,40.85
2023-05-03T15:59:21.892Z,40.85
2023-05-03T16:01:49.914Z,39.91
2023-05-03T16:04:17.898Z,38.35
2023-05-03T16:06:45.815Z,39.51
2023-05-03T16:09:14.458Z,39.52
2023-05-03T16:11:43.761Z,39.86
2023-05-03T16:14:12.125Z,38.21
2023-05-03T16:16:40.363Z,39.78
2023-05-03T16:19:08.875Z,39.54
2023-05-03T16:21:36.848Z,39.10
2023-05-03T16:24:05.300Z,39.90
2023-05-03T16:26:34.587Z,38.90
2023-05-03T16:29:03.900Z,38.47
2023-05-03T16:31:32.230Z,40.63
2023-05-03T16:34:00.370Z,39.66
2023-05-03T16:36:28.281Z,39.14
2023-05-03T16:38:56.231Z,39.43
2023-05-03T16:41:24.629Z,38.77
2023-05-03T16:43:52.919Z,38.97
2023-05-03T16:46:22.927Z,38.46
2023-05-03T16:48:51.904Z,38.74
2023-05-03T16:51:21.797Z,38.45
2023-05-03T16:53:49.694Z,36.28
2023-05-03T16:56:17.575Z,39.47
2023-05-03T16:58:45.786Z,39.03
2023-05-03T17:01:15.444Z,39.88
2023-05-03T17:03:44.846Z,40.50
2023-05-03T17:06:13.144Z,40.62
2023-05-03T17:08:41.269Z,39.70
2023-05-03T17:11:13.963Z,40.07
2023-05-03T17:13:42.078Z,40.19
2023-05-03T17:16:11.525Z,36.43
2023-05-03T17:18:40.655Z,40.65
2023-05-03T17:21:10.320Z,40.72
2023-05-03T17:23:39.527Z,40.54
2023-05-03T17:26:09.304Z,43.11
2023-05-03T17:28:37.657Z,42.52
2023-05-03T17:31:06.452Z,39.63
2023-05-03T17:33:35.004Z,42.53
2023-05-03T17:36:04.939Z,41.67
2023-05-03T17:38:35.595Z,41.08
2023-05-03T17:41:07.417Z,46.04
2023-05-03T17:43:35.740Z,47.23
2023-05-03T17:46:08.919Z,47.01
2023-05-03T17:48:39.319Z,48.83
2023-05-03T17:51:08.225Z,46.52
2023-05-03T17:53:37.548Z,48.47
2023-05-03T17:56:05.704Z,49.13
2023-05-03T17:58:33.612Z,49.57
2023-05-03T18:01:01.513Z,50.10
2023-05-03T18:03:29.499Z,50.03
2023-05-03T18:05:57.502Z,49.58
2023-05-03T18:08:25.435Z,50.16
2023-05-03T18:10:54.743Z,50.09
2023-05-03T18:13:22.877Z,50.62
2023-05-03T18:15:51.238Z,47.97
2023-05-03T18:18:19.222Z,51.49
2023-05-03T18:20:47.121Z,50.03
2023-05-03T18:23:15.540Z,51.33
2023-05-03T18:25:46.119Z,51.44
2023-05-03T18:28:15.398Z,51.91
2023-05-03T18:30:43.528Z,51.58
2023-05-03T18:33:12.075Z,52.00
2023-05-03T18:35:40.262Z,50.39
2023-05-03T18:38:08.218Z,51.43
2023-05-03T18:40:36.140Z,51.56
2023-05-03T18:43:04.200Z,51.51
2023-05-03T18:45:33.476Z,51.69
2023-05-03T18:48:01.407Z,52.54
2023-05-03T18:50:29.334Z,53.09
2023-05-03T18:52:57.207Z,52.83
2023-05-03T18:55:25.520Z,52.86
2023-05-03T18:57:53.400Z,52.57
2023-05-03T19:00:21.720Z,53.09
2023-05-03T19:02:51.064Z,53.17
2023-05-03T19:05:19.186Z,53.49
2023-05-03T19:07:47.793Z,53.22
2023-05-03T19:10:54.064Z,53.68
2023-05-03T19:13:22.055Z,53.84
2023-05-03T19:15:50.094Z,54.34
2023-05-03T19:18:19.363Z,53.93
2023-05-03T19:20:47.263Z,54.23
2023-05-03T19:23:15.196Z,53.99
2023-05-03T19:25:43.200Z,54.05
2023-05-03T19:28:11.806Z,54.48
2023-05-03T19:30:41.424Z,55.08
2023-05-03T19:33:09.410Z,55.80
2023-05-03T19:35:40.608Z,55.46
2023-05-03T19:38:08.670Z,55.15
2023-05-03T19:40:36.963Z,55.85
2023-05-03T19:43:04.851Z,56.14
2023-05-03T19:45:32.813Z,55.51
2023-05-03T19:48:00.895Z,56.78
2023-05-03T19:50:28.974Z,56.58
2023-05-03T19:52:58.265Z,56.36
2023-05-03T19:55:26.164Z,56.37
2023-05-03T19:57:54.257Z,55.95
2023-05-03T20:00:24.330Z,56.40
2023-05-03T20:02:52.274Z,56.53
2023-05-03T20:05:20.464Z,56.61
2023-05-03T20:07:49.154Z,56.80
2023-05-03T20:10:18.704Z,56.92
2023-05-03T20:12:46.606Z,56.95
2023-05-03T20:15:14.735Z,56.92
2023-05-03T20:17:42.690Z,56.85
2023-05-03T20:20:12.143Z,57.08
2023-05-03T20:22:40.660Z,56.62
2023-05-03T20:25:09.605Z,57.10
2023-05-03T20:27:38.912Z,57.39
2023-05-03T20:30:08.393Z,57.47
2023-05-03T20:32:37.098Z,57.70
2023-05-03T20:35:05.986Z,57.78
2023-05-03T20:37:35.377Z,57.94
2023-05-03T20:40:04.662Z,58.09
2023-05-03T20:42:32.868Z,58.07
2023-05-03T20:45:02.146Z,58.35
2023-05-03T20:47:30.036Z,58.42
2023-05-03T20:49:57.954Z,58.63
2023-05-03T20:52:25.952Z,58.54
2023-05-03T20:54:53.879Z,58.71
2023-05-03T20:57:21.784Z,59.05
2023-05-03T20:59:49.948Z,58.92
2023-05-03T21:02:19.220Z,58.79
2023-05-03T21:04:47.143Z,58.85
2023-05-03T21:07:15.036Z,59.24
2023-05-03T21:09:42.917Z,59.29
2023-05-03T21:12:10.837Z,59.51
2023-05-03T21:14:38.720Z,59.36
2023-05-03T21:17:08.850Z,59.75
2023-05-03T21:19:39.404Z,60.34
2023-05-03T21:22:08.569Z,60.55
2023-05-03T21:24:36.643Z,60.00
2023-05-03T21:27:04.602Z,60.11
2023-05-03T21:29:32.508Z,60.53
2023-05-03T21:32:00.615Z,60.31
2023-05-03T21:34:28.700Z,60.07
2023-05-03T21:36:57.952Z,60.12
2023-05-03T21:39:26.007Z,60.61
2023-05-03T21:41:54.438Z,60.54
2023-05-03T21:44:22.403Z,60.52
2023-05-03T21:46:50.408Z,60.62
2023-05-03T21:49:18.393Z,60.60
2023-05-03T21:51:46.300Z,60.84
2023-05-03T21:54:16.137Z,60.54
2023-05-03T21:56:44.087Z,60.36
2023-05-03T21:59:11.994Z,60.68
2023-05-03T22:01:40.366Z,60.76
2023-05-03T22:04:08.695Z,60.92
2023-05-03T22:06:37.867Z,60.29
2023-05-03T22:09:06.936Z,60.60
2023-05-03T22:11:36.302Z,60.71
2023-05-03T22:14:08.475Z,60.66
2023-05-03T22:16:37.461Z,61.09
2023-05-03T22:19:05.600Z,60.54
2023-05-03T22:21:33.516Z,61.27
2023-05-03T22:24:01.480Z,60.77
2023-05-03T22:26:29.737Z,61.32
2023-05-03T22:28:59.044Z,61.74
2023-05-03T22:31:27.550Z,61.00
2023-05-03T22:33:55.474Z,61.56
2023-05-03T22:36:23.475Z,61.93
2023-05-03T22:38:55.083Z,61.75
2023-05-03T22:41:23.141Z,61.93
2023-05-03T22:43:51.037Z,61.78
2023-05-03T22:46:20.673Z,61.55
2023-05-03T22:48:48.658Z,61.76
2023-05-03T22:51:16.724Z,61.48
2023-05-03T22:53:44.707Z,61.42
2023-05-03T22:56:13.386Z,61.86
2023-05-03T22:58:41.263Z,61.83
2023-05-03T23:01:11.589Z,61.97
2023-05-03T23:03:41.589Z,62.30
2023-05-03T23:06:09.599Z,62.17
2023-05-03T23:08:37.610Z,61.85
2023-05-03T23:11:05.785Z,61.70
2023-05-03T23:13:33.674Z,61.67
2023-05-03T23:16:02.444Z,61.66
2023-05-03T23:18:30.387Z,61.82
2023-05-03T23:20:59.923Z,61.70
2023-05-03T23:23:27.980Z,61.26
2023-05-03T23:25:56.006Z,61.73
2023-05-03T23:28:24.216Z,61.97
2023-05-03T23:30:52.466Z,61.65
2023-05-03T23:33:20.953Z,62.14
2023-05-03T23:35:50.066Z,61.71
2023-05-03T23:38:19.484Z,61.62
2023-05-03T23:40:47.458Z,62.39
2023-05-03T23:43:15.405Z,61.79
2023-05-03T23:45:43.427Z,62.04
2023-05-03T23:48:11.367Z,62.58
2023-05-03T23:50:39.312Z,62.45
2023-05-03T23:53:07.384Z,61.99
2023-05-03T23:55:36.714Z,62.93
2023-05-03T23:58:04.807Z,62.14
